Terminal Aerodrome Forecast
Issued by NWS

Home | Current Version | Previous Version | Text Only | Print | Product List | Glossary On
Versions: 1 2 3 4 5 6 7 8 9 10 11 12
000
FTUS45 KPSR 260520
TAFBLH
TAF
KBLH 260520Z 2606/2706 20010KT P6SM FEW250
     FM261500 16004KT P6SM FEW250
     FM270000 20012KT P6SM FEW250=

USA.gov is the U.S. government's official web portal to all federal, state and local government web resources and services.